»·PEaware :: DAL1756 KSLC-KSEA

DAL1756 :: KSLC-KSEA

FLIGHT INFORMATION

Flight Status: Arrived
Operator:
Delta Air Lines
More flights by this operator :: More flights under this callsign
Pilot: Patricio R. (14780)
Aircraft: AIRBUS A320
(A320)
More flights by this aircraft type
Origin: KSLC Salt Lake City Intl
United States
Destination: KSEA Seattle-Tacoma Intl
United States
More flights between these airports :: More routes between these airports
Route: CGULL1 TWF BOI PDT CHINS3
File this flight plan on PilotEdge
Remarks: PBN / A1B1C1D1O1S1 DOF / 181001 REG / N320SB EET / KZSE0059 OPR / DAL PER / C RMK / TCAS SIMBRIEF
Altitude:
(Current/Filed)
36,000ft
Speed:
(Current/Filed)
445kts
Departed: 01-Oct-18 02:37 PM
Arrived: 01-Oct-18 04:23 PM
Distance/Time
Traveled:
597nm/1:45
Distance/Time
To Go:
Arrived

Flight Plot

Page will automatically refresh every two minutes.

Flight plan parsing failed; only flown route is shown


Map Options




Map Legend


Flown Route
Filed Route
Departure Airport
Arrival Airport
Navaid (VOR, NDB)
Fix

Horizontal Profiles

Position Reports

Time Latitude Longitude Heading Altitude Ground
Speed
01-Oct-18 14:24 40.787618 -111.983875 251 4236ft 0kts
01-Oct-18 14:25 40.787618 -111.983875 250 4236ft 0kts
01-Oct-18 14:26 40.787618 -111.983875 251 4236ft 0kts
01-Oct-18 14:27 40.787618 -111.983875 250 4236ft 0kts
01-Oct-18 14:28 40.787618 -111.983875 250 4236ft 0kts
01-Oct-18 14:29 40.787618 -111.983875 250 4236ft 0kts
01-Oct-18 14:30 40.787748 -111.983376 250 4236ft 2kts
01-Oct-18 14:31 40.787535 -111.983020 6 4236ft 0kts
01-Oct-18 14:32 40.787536 -111.983020 6 4236ft 0kts
01-Oct-18 14:33 40.789244 -111.982749 6 4236ft 14kts
01-Oct-18 14:34 40.790191 -111.978951 82 4236ft 11kts
01-Oct-18 14:35 40.793006 -111.977429 354 4236ft 17kts
01-Oct-18 14:36 40.798160 -111.978031 355 4236ft 17kts
01-Oct-18 14:37 40.802874 -111.978464 9 4236ft 19kts
01-Oct-18 14:38 40.807085 -111.978529 19 4236ft 6kts
01-Oct-18 14:39 40.803075 -111.976426 174 4236ft 86kts
01-Oct-18 14:40 40.758235 -111.973296 191 5932ft 183kts
01-Oct-18 14:41 40.745450 -112.033960 304 7935ft 260kts
01-Oct-18 14:42 40.793564 -112.112546 307 10000ft 277kts
01-Oct-18 14:43 40.850955 -112.185648 318 11579ft 307kts
01-Oct-18 14:44 40.920112 -112.260286 317 13823ft 349kts
01-Oct-18 14:45 40.996898 -112.344885 316 16266ft 368kts
01-Oct-18 14:46 41.077410 -112.432145 321 18688ft 382kts
01-Oct-18 14:47 41.166747 -112.507640 319 20857ft 390kts
01-Oct-18 14:48 41.253387 -112.594865 316 22870ft 394kts
01-Oct-18 14:49 41.329852 -112.695580 305 24745ft 390kts
01-Oct-18 14:50 41.393528 -112.788722 305 26280ft 393kts
01-Oct-18 14:51 41.465454 -112.898014 303 27860ft 396kts
01-Oct-18 14:52 41.537804 -113.009011 303 29267ft 400kts
01-Oct-18 14:53 41.610993 -113.121638 303 30521ft 404kts
01-Oct-18 14:54 41.696300 -113.253396 303 32315ft 396kts
01-Oct-18 14:55 41.755334 -113.344963 302 33570ft 387kts
01-Oct-18 14:56 41.824882 -113.453202 302 34763ft 383kts
01-Oct-18 14:57 41.893893 -113.560962 302 35727ft 381kts
01-Oct-18 14:58 41.963204 -113.669620 302 36026ft 389kts
01-Oct-18 14:59 42.033454 -113.780098 302 36024ft 389kts
01-Oct-18 15:00 42.103457 -113.890638 302 36024ft 389kts
01-Oct-18 15:01 42.173336 -114.001378 302 36021ft 388kts
01-Oct-18 15:02 42.243403 -114.112217 302 36025ft 388kts
01-Oct-18 15:03 42.313138 -114.222964 302 36031ft 388kts
01-Oct-18 15:04 42.382933 -114.334232 302 36033ft 388kts
01-Oct-18 15:05 42.452409 -114.445405 302 36032ft 388kts
01-Oct-18 15:06 42.523142 -114.556429 303 36035ft 389kts
01-Oct-18 15:07 42.594323 -114.666453 302 36024ft 390kts
01-Oct-18 15:08 42.665748 -114.777401 302 36041ft 391kts
01-Oct-18 15:09 42.737037 -114.888589 302 36044ft 391kts
01-Oct-18 15:10 42.808244 -115.000074 302 36023ft 391kts
01-Oct-18 15:11 42.879476 -115.112028 302 35955ft 393kts
01-Oct-18 15:12 42.951226 -115.225235 301 35928ft 398kts
01-Oct-18 15:13 43.023897 -115.340334 301 35986ft 401kts
01-Oct-18 15:14 43.096354 -115.455550 302 36011ft 400kts
01-Oct-18 15:15 43.168446 -115.570652 302 35986ft 399kts
01-Oct-18 15:16 43.240111 -115.685524 301 35966ft 398kts
01-Oct-18 15:17 43.311861 -115.800978 301 35970ft 398kts
01-Oct-18 15:18 43.383320 -115.916433 301 35972ft 398kts
01-Oct-18 15:19 43.454685 -116.032192 301 35972ft 397kts
01-Oct-18 15:20 43.525971 -116.148285 301 35969ft 397kts
01-Oct-18 15:21 43.605385 -116.255993 309 35973ft 406kts
01-Oct-18 15:22 43.689802 -116.359132 309 35966ft 407kts
01-Oct-18 15:23 43.774265 -116.462677 309 35972ft 407kts
01-Oct-18 15:24 43.858763 -116.566649 309 35984ft 407kts
01-Oct-18 15:25 43.943147 -116.670894 308 35998ft 408kts
01-Oct-18 15:26 44.027675 -116.775728 308 36020ft 408kts
01-Oct-18 15:27 44.111904 -116.880611 308 36018ft 407kts
01-Oct-18 15:28 44.196099 -116.985873 308 35983ft 408kts
01-Oct-18 15:29 44.280485 -117.091801 307 35960ft 411kts
01-Oct-18 15:30 44.365406 -117.198827 307 35982ft 415kts
01-Oct-18 15:31 44.451374 -117.307611 307 36018ft 418kts
01-Oct-18 15:32 44.537321 -117.416829 307 36021ft 418kts
01-Oct-18 15:33 44.623115 -117.526307 307 36005ft 418kts
01-Oct-18 15:34 44.708582 -117.635820 307 35993ft 417kts
01-Oct-18 15:35 44.794013 -117.745753 306 35997ft 417kts
01-Oct-18 15:36 44.879342 -117.856010 306 35992ft 417kts
01-Oct-18 15:37 44.964420 -117.966410 306 35983ft 416kts
01-Oct-18 15:38 45.049425 -118.077190 308 35923ft 420kts
01-Oct-18 15:39 45.135653 -118.190028 309 35908ft 428kts
01-Oct-18 15:40 45.223187 -118.305074 309 35964ft 434kts
01-Oct-18 15:41 45.311713 -118.421944 309 35997ft 436kts
01-Oct-18 15:42 45.400098 -118.539154 309 35982ft 435kts
01-Oct-18 15:43 45.487107 -118.655055 309 35956ft 434kts
01-Oct-18 15:44 45.574796 -118.772384 309 35943ft 434kts
01-Oct-18 15:45 45.662626 -118.890431 308 35930ft 433kts
01-Oct-18 15:46 45.743457 -119.014571 302 35919ft 426kts
01-Oct-18 15:47 45.819956 -119.143786 302 35908ft 425kts
01-Oct-18 15:48 45.896229 -119.273256 302 35902ft 425kts
01-Oct-18 15:49 45.972206 -119.402836 302 35895ft 425kts
01-Oct-18 15:50 46.047980 -119.532679 302 35888ft 425kts
01-Oct-18 15:51 46.123396 -119.662511 302 35893ft 425kts
01-Oct-18 15:52 46.198783 -119.792906 302 35903ft 424kts
01-Oct-18 15:53 46.274119 -119.923839 302 35892ft 425kts
01-Oct-18 15:54 46.349310 -120.055147 301 35894ft 425kts
01-Oct-18 15:55 46.424371 -120.186853 301 35897ft 425kts
01-Oct-18 15:56 46.499202 -120.318784 302 35896ft 425kts
01-Oct-18 15:57 46.573582 -120.452016 298 35502ft 421kts
01-Oct-18 15:58 46.640304 -120.591080 297 34545ft 422kts
01-Oct-18 15:59 46.704211 -120.725278 297 32919ft 422kts
01-Oct-18 16:00 46.771143 -120.866531 297 30110ft 428kts
01-Oct-18 16:01 46.837731 -121.007835 298 27909ft 416kts
01-Oct-18 16:02 46.902049 -121.145033 298 25788ft 404kts
01-Oct-18 16:03 46.964205 -121.278247 298 23682ft 391kts
01-Oct-18 16:04 47.024344 -121.407745 298 21608ft 379kts
01-Oct-18 16:05 47.082260 -121.533033 298 19571ft 366kts
01-Oct-18 16:06 47.137471 -121.653019 298 17605ft 353kts
01-Oct-18 16:07 47.190990 -121.769838 298 15678ft 342kts
01-Oct-18 16:08 47.242761 -121.883324 298 14176ft 336kts
01-Oct-18 16:09 47.284900 -121.975944 298 13426ft 311kts
01-Oct-18 16:10 47.337682 -122.092583 298 12275ft 287kts
01-Oct-18 16:11 47.379304 -122.168752 328 12015ft 305kts
01-Oct-18 16:12 47.480253 -122.169530 0 12011ft 313kts
01-Oct-18 16:13 47.562909 -122.159301 0 11876ft 292kts
01-Oct-18 16:14 47.630431 -122.152022 0 10676ft 293kts
01-Oct-18 16:15 47.723755 -122.146171 0 8802ft 286kts
01-Oct-18 16:16 47.785133 -122.163991 307 7250ft 265kts
01-Oct-18 16:17 47.796276 -122.260931 231 6181ft 231kts
01-Oct-18 16:18 47.745099 -122.305838 188 5286ft 214kts
01-Oct-18 16:19 47.685534 -122.309046 179 4533ft 213kts
01-Oct-18 16:20 47.627027 -122.309556 179 3609ft 213kts
01-Oct-18 16:21 47.567971 -122.310080 179 2440ft 200kts
01-Oct-18 16:22 47.521938 -122.310478 178 1550ft 134kts
01-Oct-18 16:23 47.485318 -122.310875 178 852ft 131kts
01-Oct-18 16:24 47.452156 -122.311068 180 413ft 61kts
01-Oct-18 16:25 47.446592 -122.309276 149 397ft 0kts
01-Oct-18 16:26 47.444981 -122.306312 181 394ft 17kts
01-Oct-18 16:27 47.441840 -122.304703 89 384ft 8kts

Navigation Log

Ident Type
Flight plan parsing failed, navigation log unavailable